sensor_id;sensor_type;location;lat;lon;timestamp;temperature;humidity
10826;DHT22;5466;55.898;14.094;2024-03-29T00:01:50;6.50;99.90
10826;DHT22;5466;55.898;14.094;2024-03-29T00:03:51;6.50;99.90
10826;DHT22;5466;55.898;14.094;2024-03-29T00:05:53;6.50;99.90
10826;DHT22;5466;55.898;14.094;2024-03-29T00:07:54;6.50;99.90
10826;DHT22;5466;55.898;14.094;2024-03-29T00:09:54;6.50;99.90
10826;DHT22;5466;55.898;14.094;2024-03-29T00:11:55;6.40;99.90
10826;DHT22;5466;55.898;14.094;2024-03-29T00:13:55;6.40;99.90
10826;DHT22;5466;55.898;14.094;2024-03-29T00:15:56;6.40;99.90
10826;DHT22;5466;55.898;14.094;2024-03-29T00:17:56;6.40;99.90
10826;DHT22;5466;55.898;14.094;2024-03-29T00:19:57;6.40;99.90
10826;DHT22;5466;55.898;14.094;2024-03-29T00:21:57;6.40;99.90
10826;DHT22;5466;55.898;14.094;2024-03-29T00:23:58;6.40;99.90
10826;DHT22;5466;55.898;14.094;2024-03-29T00:25:58;6.40;99.90
10826;DHT22;5466;55.898;14.094;2024-03-29T00:27:59;6.30;99.90
10826;DHT22;5466;55.898;14.094;2024-03-29T00:30:01;6.30;99.90
10826;DHT22;5466;55.898;14.094;2024-03-29T00:32:02;6.30;99.90
10826;DHT22;5466;55.898;14.094;2024-03-29T00:34:02;6.30;99.90
10826;DHT22;5466;55.898;14.094;2024-03-29T00:36:03;6.30;99.90
10826;DHT22;5466;55.898;14.094;2024-03-29T00:38:04;6.40;99.90
10826;DHT22;5466;55.898;14.094;2024-03-29T00:40:05;6.40;99.90
10826;DHT22;5466;55.898;14.094;2024-03-29T00:42:06;6.30;99.90
10826;DHT22;5466;55.898;14.094;2024-03-29T00:44:09;6.30;99.90
10826;DHT22;5466;55.898;14.094;2024-03-29T00:46:09;6.30;99.90
10826;DHT22;5466;55.898;14.094;2024-03-29T00:48:10;6.30;99.90
10826;DHT22;5466;55.898;14.094;2024-03-29T00:50:10;6.30;99.90
10826;DHT22;5466;55.898;14.094;2024-03-29T00:52:11;6.30;99.90
10826;DHT22;5466;55.898;14.094;2024-03-29T00:54:12;6.40;99.90
10826;DHT22;5466;55.898;14.094;2024-03-29T00:56:12;6.40;99.90
10826;DHT22;5466;55.898;14.094;2024-03-29T00:58:13;6.40;99.90
10826;DHT22;5466;55.898;14.094;2024-03-29T01:00:13;6.40;99.90
10826;DHT22;5466;55.898;14.094;2024-03-29T01:02:14;6.40;99.90
10826;DHT22;5466;55.898;14.094;2024-03-29T01:04:15;6.40;99.90
10826;DHT22;5466;55.898;14.094;2024-03-29T01:06:16;6.40;99.90
10826;DHT22;5466;55.898;14.094;2024-03-29T01:08:16;6.30;99.90
10826;DHT22;5466;55.898;14.094;2024-03-29T01:10:17;6.30;99.90
10826;DHT22;5466;55.898;14.094;2024-03-29T01:12:18;6.40;99.90
10826;DHT22;5466;55.898;14.094;2024-03-29T01:14:19;6.40;99.90
10826;DHT22;5466;55.898;14.094;2024-03-29T01:16:20;6.40;99.90
10826;DHT22;5466;55.898;14.094;2024-03-29T01:18:20;6.30;99.90
10826;DHT22;5466;55.898;14.094;2024-03-29T01:20:21;6.30;99.90
10826;DHT22;5466;55.898;14.094;2024-03-29T01:22:22;6.40;99.90
10826;DHT22;5466;55.898;14.094;2024-03-29T01:24:22;6.40;99.90
10826;DHT22;5466;55.898;14.094;2024-03-29T01:26:23;6.40;99.90
10826;DHT22;5466;55.898;14.094;2024-03-29T01:28:23;6.30;99.90
10826;DHT22;5466;55.898;14.094;2024-03-29T01:30:24;6.30;99.90
10826;DHT22;5466;55.898;14.094;2024-03-29T01:32:24;6.30;99.90
10826;DHT22;5466;55.898;14.094;2024-03-29T01:34:25;6.30;99.90
10826;DHT22;5466;55.898;14.094;2024-03-29T01:36:26;6.20;99.90
10826;DHT22;5466;55.898;14.094;2024-03-29T01:38:26;6.20;99.90
10826;DHT22;5466;55.898;14.094;2024-03-29T01:40:27;6.20;99.90
10826;DHT22;5466;55.898;14.094;2024-03-29T01:42:28;6.10;99.90
10826;DHT22;5466;55.898;14.094;2024-03-29T01:44:28;6.10;99.90
10826;DHT22;5466;55.898;14.094;2024-03-29T01:46:29;6.10;99.90
10826;DHT22;5466;55.898;14.094;2024-03-29T01:48:29;6.00;99.90
10826;DHT22;5466;55.898;14.094;2024-03-29T01:50:31;6.00;99.90
10826;DHT22;5466;55.898;14.094;2024-03-29T01:52:31;5.90;99.90
10826;DHT22;5466;55.898;14.094;2024-03-29T01:54:32;5.90;99.90
10826;DHT22;5466;55.898;14.094;2024-03-29T01:56:35;5.80;99.90
10826;DHT22;5466;55.898;14.094;2024-03-29T01:58:36;5.80;99.90
10826;DHT22;5466;55.898;14.094;2024-03-29T02:00:44;5.70;99.90
10826;DHT22;5466;55.898;14.094;2024-03-29T02:02:49;5.60;99.90
10826;DHT22;5466;55.898;14.094;2024-03-29T02:04:49;5.60;99.90
10826;DHT22;5466;55.898;14.094;2024-03-29T02:06:50;5.60;99.90
10826;DHT22;5466;55.898;14.094;2024-03-29T02:08:52;5.50;99.90
10826;DHT22;5466;55.898;14.094;2024-03-29T02:10:56;5.40;99.90
10826;DHT22;5466;55.898;14.094;2024-03-29T02:12:58;5.40;99.90
10826;DHT22;5466;55.898;14.094;2024-03-29T02:14:59;5.30;99.90
10826;DHT22;5466;55.898;14.094;2024-03-29T02:17:00;5.30;99.90
10826;DHT22;5466;55.898;14.094;2024-03-29T02:19:00;5.30;99.90
10826;DHT22;5466;55.898;14.094;2024-03-29T02:21:01;5.30;99.90
10826;DHT22;5466;55.898;14.094;2024-03-29T02:23:11;5.30;99.90
10826;DHT22;5466;55.898;14.094;2024-03-29T02:25:12;5.30;99.90
10826;DHT22;5466;55.898;14.094;2024-03-29T02:27:13;5.30;99.90
10826;DHT22;5466;55.898;14.094;2024-03-29T02:29:14;5.30;99.90
10826;DHT22;5466;55.898;14.094;2024-03-29T02:31:14;5.30;99.90
10826;DHT22;5466;55.898;14.094;2024-03-29T02:33:15;5.30;99.90
10826;DHT22;5466;55.898;14.094;2024-03-29T02:35:15;5.40;99.90
10826;DHT22;5466;55.898;14.094;2024-03-29T02:37:16;5.40;99.90
10826;DHT22;5466;55.898;14.094;2024-03-29T02:39:17;5.50;99.90
10826;DHT22;5466;55.898;14.094;2024-03-29T02:41:18;5.40;99.90
10826;DHT22;5466;55.898;14.094;2024-03-29T02:43:18;5.50;99.90
10826;DHT22;5466;55.898;14.094;2024-03-29T02:45:19;5.50;99.90
10826;DHT22;5466;55.898;14.094;2024-03-29T02:47:19;5.60;99.90
10826;DHT22;5466;55.898;14.094;2024-03-29T02:49:20;5.60;99.90
10826;DHT22;5466;55.898;14.094;2024-03-29T02:51:20;5.70;99.90
10826;DHT22;5466;55.898;14.094;2024-03-29T02:53:21;5.70;99.90
10826;DHT22;5466;55.898;14.094;2024-03-29T02:55:22;5.60;99.90
10826;DHT22;5466;55.898;14.094;2024-03-29T02:57:22;5.60;99.90
10826;DHT22;5466;55.898;14.094;2024-03-29T02:59:23;5.60;99.90
10826;DHT22;5466;55.898;14.094;2024-03-29T03:01:23;5.60;99.90
10826;DHT22;5466;55.898;14.094;2024-03-29T03:03:27;5.50;99.90
10826;DHT22;5466;55.898;14.094;2024-03-29T03:05:29;5.50;99.90
10826;DHT22;5466;55.898;14.094;2024-03-29T03:07:29;5.60;99.90
10826;DHT22;5466;55.898;14.094;2024-03-29T03:09:49;5.50;99.90
10826;DHT22;5466;55.898;14.094;2024-03-29T03:12:08;5.50;99.90
10826;DHT22;5466;55.898;14.094;2024-03-29T03:14:08;5.60;99.90
10826;DHT22;5466;55.898;14.094;2024-03-29T03:16:09;5.50;99.90
10826;DHT22;5466;55.898;14.094;2024-03-29T03:18:09;5.50;99.90
10826;DHT22;5466;55.898;14.094;2024-03-29T03:20:10;5.60;99.90
10826;DHT22;5466;55.898;14.094;2024-03-29T03:22:14;5.50;99.90
10826;DHT22;5466;55.898;14.094;2024-03-29T03:24:14;5.40;99.90
10826;DHT22;5466;55.898;14.094;2024-03-29T03:26:15;5.40;99.90
10826;DHT22;5466;55.898;14.094;2024-03-29T03:28:15;5.30;99.90
10826;DHT22;5466;55.898;14.094;2024-03-29T03:30:16;5.30;99.90
10826;DHT22;5466;55.898;14.094;2024-03-29T03:32:17;5.20;99.90
10826;DHT22;5466;55.898;14.094;2024-03-29T03:34:17;5.20;99.90
10826;DHT22;5466;55.898;14.094;2024-03-29T03:36:18;5.20;99.90
10826;DHT22;5466;55.898;14.094;2024-03-29T03:38:18;5.20;99.90
10826;DHT22;5466;55.898;14.094;2024-03-29T03:40:19;5.20;99.90
10826;DHT22;5466;55.898;14.094;2024-03-29T03:42:20;5.10;99.90
10826;DHT22;5466;55.898;14.094;2024-03-29T03:44:20;5.10;99.90
10826;DHT22;5466;55.898;14.094;2024-03-29T03:46:22;5.10;99.90
10826;DHT22;5466;55.898;14.094;2024-03-29T03:48:22;5.10;99.90
10826;DHT22;5466;55.898;14.094;2024-03-29T03:50:23;5.10;99.90
10826;DHT22;5466;55.898;14.094;2024-03-29T03:52:23;5.00;99.90
10826;DHT22;5466;55.898;14.094;2024-03-29T03:54:24;5.00;99.90
10826;DHT22;5466;55.898;14.094;2024-03-29T03:56:24;4.90;99.90
10826;DHT22;5466;55.898;14.094;2024-03-29T03:58:25;4.90;99.90
10826;DHT22;5466;55.898;14.094;2024-03-29T04:00:26;4.90;99.90
10826;DHT22;5466;55.898;14.094;2024-03-29T04:02:26;4.80;99.90
10826;DHT22;5466;55.898;14.094;2024-03-29T04:04:27;4.80;99.90
10826;DHT22;5466;55.898;14.094;2024-03-29T04:06:27;4.70;99.90
10826;DHT22;5466;55.898;14.094;2024-03-29T04:08:28;4.70;99.90
10826;DHT22;5466;55.898;14.094;2024-03-29T04:10:28;4.70;99.90
10826;DHT22;5466;55.898;14.094;2024-03-29T04:12:29;4.70;99.90
10826;DHT22;5466;55.898;14.094;2024-03-29T04:14:29;4.70;99.90
10826;DHT22;5466;55.898;14.094;2024-03-29T04:16:30;4.70;99.90
10826;DHT22;5466;55.898;14.094;2024-03-29T04:18:31;4.80;99.90
10826;DHT22;5466;55.898;14.094;2024-03-29T04:20:31;4.80;99.90
10826;DHT22;5466;55.898;14.094;2024-03-29T04:22:32;4.80;99.90
10826;DHT22;5466;55.898;14.094;2024-03-29T04:24:33;4.80;99.90
10826;DHT22;5466;55.898;14.094;2024-03-29T04:26:33;4.80;99.90
10826;DHT22;5466;55.898;14.094;2024-03-29T04:28:34;4.80;99.90
10826;DHT22;5466;55.898;14.094;2024-03-29T04:30:34;4.80;99.90
10826;DHT22;5466;55.898;14.094;2024-03-29T04:32:35;4.80;99.90
10826;DHT22;5466;55.898;14.094;2024-03-29T04:34:35;4.70;99.90
10826;DHT22;5466;55.898;14.094;2024-03-29T04:36:36;4.70;99.90
10826;DHT22;5466;55.898;14.094;2024-03-29T04:38:36;4.60;99.90
10826;DHT22;5466;55.898;14.094;2024-03-29T04:40:37;4.50;99.90
10826;DHT22;5466;55.898;14.094;2024-03-29T04:42:37;4.30;99.90
10826;DHT22;5466;55.898;14.094;2024-03-29T04:44:38;4.20;99.90
10826;DHT22;5466;55.898;14.094;2024-03-29T04:46:39;4.20;99.90
10826;DHT22;5466;55.898;14.094;2024-03-29T04:48:41;4.10;99.90
10826;DHT22;5466;55.898;14.094;2024-03-29T04:50:42;4.10;99.90
10826;DHT22;5466;55.898;14.094;2024-03-29T04:52:43;4.10;99.90
10826;DHT22;5466;55.898;14.094;2024-03-29T04:54:43;4.00;99.90
10826;DHT22;5466;55.898;14.094;2024-03-29T04:56:44;4.10;99.90
10826;DHT22;5466;55.898;14.094;2024-03-29T04:58:44;4.00;99.90
10826;DHT22;5466;55.898;14.094;2024-03-29T05:00:46;3.90;99.90
10826;DHT22;5466;55.898;14.094;2024-03-29T05:02:47;3.80;99.90
10826;DHT22;5466;55.898;14.094;2024-03-29T05:04:47;3.70;99.90
10826;DHT22;5466;55.898;14.094;2024-03-29T05:06:48;3.60;99.90
10826;DHT22;5466;55.898;14.094;2024-03-29T05:08:48;3.60;99.90
10826;DHT22;5466;55.898;14.094;2024-03-29T05:10:50;3.50;99.90
10826;DHT22;5466;55.898;14.094;2024-03-29T05:12:50;3.80;99.90
10826;DHT22;5466;55.898;14.094;2024-03-29T05:14:51;3.80;99.90
10826;DHT22;5466;55.898;14.094;2024-03-29T05:16:52;3.90;99.90
10826;DHT22;5466;55.898;14.094;2024-03-29T05:18:53;4.20;99.90
10826;DHT22;5466;55.898;14.094;2024-03-29T05:20:53;4.40;99.90
10826;DHT22;5466;55.898;14.094;2024-03-29T05:22:54;4.50;99.90
10826;DHT22;5466;55.898;14.094;2024-03-29T05:24:54;4.60;99.90
10826;DHT22;5466;55.898;14.094;2024-03-29T05:26:55;4.70;99.90
10826;DHT22;5466;55.898;14.094;2024-03-29T05:28:55;4.80;99.90
10826;DHT22;5466;55.898;14.094;2024-03-29T05:31:11;4.90;99.90
10826;DHT22;5466;55.898;14.094;2024-03-29T05:33:12;5.00;99.90
10826;DHT22;5466;55.898;14.094;2024-03-29T05:35:12;5.00;99.90
10826;DHT22;5466;55.898;14.094;2024-03-29T05:37:14;5.00;99.90
10826;DHT22;5466;55.898;14.094;2024-03-29T05:39:17;5.10;99.90
10826;DHT22;5466;55.898;14.094;2024-03-29T05:41:19;5.10;99.90
10826;DHT22;5466;55.898;14.094;2024-03-29T05:43:19;5.20;99.90
10826;DHT22;5466;55.898;14.094;2024-03-29T05:45:25;5.30;99.90
10826;DHT22;5466;55.898;14.094;2024-03-29T05:47:26;5.30;99.90
10826;DHT22;5466;55.898;14.094;2024-03-29T05:49:26;5.30;99.90
10826;DHT22;5466;55.898;14.094;2024-03-29T05:51:27;5.40;99.90
10826;DHT22;5466;55.898;14.094;2024-03-29T05:53:27;5.40;99.90
10826;DHT22;5466;55.898;14.094;2024-03-29T05:55:28;5.40;99.90
10826;DHT22;5466;55.898;14.094;2024-03-29T05:57:28;5.40;99.90
10826;DHT22;5466;55.898;14.094;2024-03-29T05:59:31;5.50;99.90
10826;DHT22;5466;55.898;14.094;2024-03-29T06:01:31;5.50;99.90
10826;DHT22;5466;55.898;14.094;2024-03-29T06:03:32;5.50;99.90
10826;DHT22;5466;55.898;14.094;2024-03-29T06:05:32;5.60;99.90
10826;DHT22;5466;55.898;14.094;2024-03-29T06:07:33;5.60;99.90
10826;DHT22;5466;55.898;14.094;2024-03-29T06:09:34;5.70;99.90
10826;DHT22;5466;55.898;14.094;2024-03-29T06:11:34;5.80;99.90
10826;DHT22;5466;55.898;14.094;2024-03-29T06:13:35;5.80;99.90
10826;DHT22;5466;55.898;14.094;2024-03-29T06:15:54;5.90;99.90
10826;DHT22;5466;55.898;14.094;2024-03-29T06:18:13;6.00;99.90
10826;DHT22;5466;55.898;14.094;2024-03-29T06:20:17;6.10;99.90
10826;DHT22;5466;55.898;14.094;2024-03-29T06:22:17;6.10;99.90
10826;DHT22;5466;55.898;14.094;2024-03-29T06:24:18;6.20;99.90
10826;DHT22;5466;55.898;14.094;2024-03-29T06:26:19;6.30;99.90
10826;DHT22;5466;55.898;14.094;2024-03-29T06:28:22;6.40;99.90
10826;DHT22;5466;55.898;14.094;2024-03-29T06:30:22;6.60;99.90
10826;DHT22;5466;55.898;14.094;2024-03-29T06:32:23;6.70;99.90
10826;DHT22;5466;55.898;14.094;2024-03-29T06:34:23;6.90;99.90
10826;DHT22;5466;55.898;14.094;2024-03-29T06:36:24;7.00;99.90
10826;DHT22;5466;55.898;14.094;2024-03-29T06:38:25;7.20;99.90
10826;DHT22;5466;55.898;14.094;2024-03-29T06:40:26;7.30;99.90
10826;DHT22;5466;55.898;14.094;2024-03-29T06:42:27;7.40;99.90
10826;DHT22;5466;55.898;14.094;2024-03-29T06:44:27;7.60;99.90
10826;DHT22;5466;55.898;14.094;2024-03-29T06:46:28;7.80;99.90
10826;DHT22;5466;55.898;14.094;2024-03-29T06:48:29;8.00;99.90
10826;DHT22;5466;55.898;14.094;2024-03-29T06:50:31;8.10;99.90
10826;DHT22;5466;55.898;14.094;2024-03-29T06:52:32;8.20;99.90
10826;DHT22;5466;55.898;14.094;2024-03-29T06:54:32;8.40;99.90
10826;DHT22;5466;55.898;14.094;2024-03-29T06:56:33;8.60;99.90
10826;DHT22;5466;55.898;14.094;2024-03-29T06:58:34;8.80;99.90
10826;DHT22;5466;55.898;14.094;2024-03-29T07:00:34;8.90;99.90
10826;DHT22;5466;55.898;14.094;2024-03-29T07:02:35;8.70;99.90
10826;DHT22;5466;55.898;14.094;2024-03-29T07:04:36;8.80;99.90
10826;DHT22;5466;55.898;14.094;2024-03-29T07:06:36;8.90;99.90
10826;DHT22;5466;55.898;14.094;2024-03-29T07:08:38;8.90;99.90
10826;DHT22;5466;55.898;14.094;2024-03-29T07:10:39;9.10;99.90
10826;DHT22;5466;55.898;14.094;2024-03-29T07:12:40;9.20;99.90
10826;DHT22;5466;55.898;14.094;2024-03-29T07:14:40;9.20;99.90
10826;DHT22;5466;55.898;14.094;2024-03-29T07:16:41;9.20;99.90
10826;DHT22;5466;55.898;14.094;2024-03-29T07:18:42;9.40;99.90
10826;DHT22;5466;55.898;14.094;2024-03-29T07:20:42;9.50;99.90
10826;DHT22;5466;55.898;14.094;2024-03-29T07:22:43;9.70;99.90
10826;DHT22;5466;55.898;14.094;2024-03-29T07:24:45;9.90;99.90
10826;DHT22;5466;55.898;14.094;2024-03-29T07:26:46;9.80;99.90
10826;DHT22;5466;55.898;14.094;2024-03-29T07:28:46;10.00;99.90
10826;DHT22;5466;55.898;14.094;2024-03-29T07:30:47;10.20;99.90
10826;DHT22;5466;55.898;14.094;2024-03-29T07:32:47;10.30;99.90
10826;DHT22;5466;55.898;14.094;2024-03-29T07:34:48;10.20;99.90
10826;DHT22;5466;55.898;14.094;2024-03-29T07:36:48;10.40;99.90
10826;DHT22;5466;55.898;14.094;2024-03-29T07:38:49;10.60;99.90
10826;DHT22;5466;55.898;14.094;2024-03-29T07:40:51;10.80;99.90
10826;DHT22;5466;55.898;14.094;2024-03-29T07:42:51;10.60;99.90
10826;DHT22;5466;55.898;14.094;2024-03-29T07:44:52;10.60;99.90
10826;DHT22;5466;55.898;14.094;2024-03-29T07:46:53;10.70;99.90
10826;DHT22;5466;55.898;14.094;2024-03-29T07:48:53;10.90;99.90
10826;DHT22;5466;55.898;14.094;2024-03-29T07:50:54;11.10;99.90
10826;DHT22;5466;55.898;14.094;2024-03-29T07:52:55;11.00;99.90
10826;DHT22;5466;55.898;14.094;2024-03-29T07:54:55;11.10;99.90
10826;DHT22;5466;55.898;14.094;2024-03-29T07:56:56;11.10;99.90
10826;DHT22;5466;55.898;14.094;2024-03-29T07:58:56;11.30;99.90
10826;DHT22;5466;55.898;14.094;2024-03-29T08:00:57;11.50;99.90
10826;DHT22;5466;55.898;14.094;2024-03-29T08:02:58;11.60;99.90
10826;DHT22;5466;55.898;14.094;2024-03-29T08:04:59;11.90;99.90
10826;DHT22;5466;55.898;14.094;2024-03-29T08:06:59;11.80;99.90
10826;DHT22;5466;55.898;14.094;2024-03-29T08:09:00;11.80;99.90
10826;DHT22;5466;55.898;14.094;2024-03-29T08:11:00;12.10;99.90
10826;DHT22;5466;55.898;14.094;2024-03-29T08:13:01;12.10;99.90
10826;DHT22;5466;55.898;14.094;2024-03-29T08:15:02;12.10;99.90
10826;DHT22;5466;55.898;14.094;2024-03-29T08:17:03;12.20;99.90
10826;DHT22;5466;55.898;14.094;2024-03-29T08:19:08;11.90;99.90
10826;DHT22;5466;55.898;14.094;2024-03-29T08:21:09;11.90;99.90
10826;DHT22;5466;55.898;14.094;2024-03-29T08:23:12;11.90;99.90
10826;DHT22;5466;55.898;14.094;2024-03-29T08:25:13;11.70;99.90
10826;DHT22;5466;55.898;14.094;2024-03-29T08:27:13;11.50;99.90
10826;DHT22;5466;55.898;14.094;2024-03-29T08:29:14;11.20;99.90
10826;DHT22;5466;55.898;14.094;2024-03-29T08:31:15;11.40;99.90
10826;DHT22;5466;55.898;14.094;2024-03-29T08:33:16;11.60;99.90
10826;DHT22;5466;55.898;14.094;2024-03-29T08:35:17;12.00;99.90
10826;DHT22;5466;55.898;14.094;2024-03-29T08:37:18;12.20;99.90
10826;DHT22;5466;55.898;14.094;2024-03-29T08:39:18;12.10;99.90
10826;DHT22;5466;55.898;14.094;2024-03-29T08:41:19;12.20;99.90
10826;DHT22;5466;55.898;14.094;2024-03-29T08:43:20;12.30;99.90
10826;DHT22;5466;55.898;14.094;2024-03-29T08:45:20;12.50;99.90
10826;DHT22;5466;55.898;14.094;2024-03-29T08:47:21;12.60;99.90
10826;DHT22;5466;55.898;14.094;2024-03-29T08:49:22;12.70;99.90
10826;DHT22;5466;55.898;14.094;2024-03-29T08:51:23;12.70;99.90
10826;DHT22;5466;55.898;14.094;2024-03-29T08:53:24;12.80;99.90
10826;DHT22;5466;55.898;14.094;2024-03-29T08:55:27;12.90;99.90
10826;DHT22;5466;55.898;14.094;2024-03-29T08:57:27;13.10;99.90
10826;DHT22;5466;55.898;14.094;2024-03-29T08:59:28;13.30;99.90
10826;DHT22;5466;55.898;14.094;2024-03-29T09:01:29;13.50;99.90
10826;DHT22;5466;55.898;14.094;2024-03-29T09:03:30;13.20;99.90
10826;DHT22;5466;55.898;14.094;2024-03-29T09:05:31;13.30;99.90
10826;DHT22;5466;55.898;14.094;2024-03-29T09:07:31;13.20;99.90
10826;DHT22;5466;55.898;14.094;2024-03-29T09:09:32;13.10;99.90
10826;DHT22;5466;55.898;14.094;2024-03-29T09:11:33;13.20;99.90
10826;DHT22;5466;55.898;14.094;2024-03-29T09:13:34;13.50;99.90
10826;DHT22;5466;55.898;14.094;2024-03-29T09:15:34;13.70;99.90
10826;DHT22;5466;55.898;14.094;2024-03-29T09:17:35;13.90;99.90
10826;DHT22;5466;55.898;14.094;2024-03-29T09:19:35;14.00;99.90
10826;DHT22;5466;55.898;14.094;2024-03-29T09:21:36;14.20;99.90
10826;DHT22;5466;55.898;14.094;2024-03-29T09:23:36;14.30;99.90
10826;DHT22;5466;55.898;14.094;2024-03-29T09:25:41;14.50;99.90
10826;DHT22;5466;55.898;14.094;2024-03-29T09:27:45;14.80;99.90
10826;DHT22;5466;55.898;14.094;2024-03-29T09:29:48;15.10;99.90
10826;DHT22;5466;55.898;14.094;2024-03-29T09:31:49;14.90;99.90
10826;DHT22;5466;55.898;14.094;2024-03-29T09:33:50;14.60;99.90
10826;DHT22;5466;55.898;14.094;2024-03-29T09:35:53;14.50;99.90
10826;DHT22;5466;55.898;14.094;2024-03-29T09:37:54;14.40;99.90
10826;DHT22;5466;55.898;14.094;2024-03-29T09:39:57;14.20;99.90
10826;DHT22;5466;55.898;14.094;2024-03-29T09:41:58;14.10;99.90
10826;DHT22;5466;55.898;14.094;2024-03-29T09:44:03;14.20;99.90
10826;DHT22;5466;55.898;14.094;2024-03-29T09:46:04;14.60;99.90
10826;DHT22;5466;55.898;14.094;2024-03-29T09:48:05;14.90;99.90
10826;DHT22;5466;55.898;14.094;2024-03-29T09:50:07;15.20;99.90
10826;DHT22;5466;55.898;14.094;2024-03-29T09:52:09;15.10;99.90
10826;DHT22;5466;55.898;14.094;2024-03-29T09:54:10;15.00;99.90
10826;DHT22;5466;55.898;14.094;2024-03-29T09:56:14;14.90;99.90
10826;DHT22;5466;55.898;14.094;2024-03-29T09:58:14;15.10;99.90
10826;DHT22;5466;55.898;14.094;2024-03-29T10:00:15;15.00;99.90
10826;DHT22;5466;55.898;14.094;2024-03-29T10:02:18;15.10;99.90
10826;DHT22;5466;55.898;14.094;2024-03-29T10:04:21;14.90;99.90
10826;DHT22;5466;55.898;14.094;2024-03-29T10:06:24;15.30;99.90
10826;DHT22;5466;55.898;14.094;2024-03-29T10:08:28;15.70;99.90
10826;DHT22;5466;55.898;14.094;2024-03-29T10:10:31;15.50;99.90
10826;DHT22;5466;55.898;14.094;2024-03-29T10:12:32;15.40;99.90
10826;DHT22;5466;55.898;14.094;2024-03-29T10:14:46;15.00;99.90
10826;DHT22;5466;55.898;14.094;2024-03-29T10:16:52;14.50;99.90
10826;DHT22;5466;55.898;14.094;2024-03-29T10:18:53;14.20;99.90
10826;DHT22;5466;55.898;14.094;2024-03-29T10:21:04;14.10;99.90
10826;DHT22;5466;55.898;14.094;2024-03-29T10:23:05;13.90;99.90
10826;DHT22;5466;55.898;14.094;2024-03-29T10:25:07;13.50;99.90
10826;DHT22;5466;55.898;14.094;2024-03-29T10:27:08;13.50;99.90
10826;DHT22;5466;55.898;14.094;2024-03-29T10:29:09;13.40;99.90
10826;DHT22;5466;55.898;14.094;2024-03-29T10:31:09;13.30;99.90
10826;DHT22;5466;55.898;14.094;2024-03-29T10:33:13;13.40;99.90
10826;DHT22;5466;55.898;14.094;2024-03-29T10:35:13;13.60;99.90
10826;DHT22;5466;55.898;14.094;2024-03-29T10:37:14;14.00;99.90
10826;DHT22;5466;55.898;14.094;2024-03-29T10:39:17;14.30;99.90
10826;DHT22;5466;55.898;14.094;2024-03-29T10:41:18;14.30;99.90
10826;DHT22;5466;55.898;14.094;2024-03-29T10:43:19;14.10;99.90
10826;DHT22;5466;55.898;14.094;2024-03-29T10:45:21;13.70;99.90
10826;DHT22;5466;55.898;14.094;2024-03-29T10:47:23;13.70;99.90
10826;DHT22;5466;55.898;14.094;2024-03-29T10:49:25;13.70;99.90
10826;DHT22;5466;55.898;14.094;2024-03-29T10:51:26;13.90;99.90
10826;DHT22;5466;55.898;14.094;2024-03-29T10:53:27;14.10;99.90
10826;DHT22;5466;55.898;14.094;2024-03-29T10:55:29;14.10;99.90
10826;DHT22;5466;55.898;14.094;2024-03-29T10:57:33;14.20;99.90
10826;DHT22;5466;55.898;14.094;2024-03-29T10:59:47;14.30;99.90
10826;DHT22;5466;55.898;14.094;2024-03-29T11:01:59;14.40;99.90
10826;DHT22;5466;55.898;14.094;2024-03-29T11:04:07;14.00;99.90
10826;DHT22;5466;55.898;14.094;2024-03-29T11:06:12;13.60;99.90
10826;DHT22;5466;55.898;14.094;2024-03-29T11:08:19;13.60;99.90
10826;DHT22;5466;55.898;14.094;2024-03-29T11:10:25;13.50;99.90
10826;DHT22;5466;55.898;14.094;2024-03-29T11:12:29;13.30;99.90
10826;DHT22;5466;55.898;14.094;2024-03-29T11:14:43;13.30;99.90
10826;DHT22;5466;55.898;14.094;2024-03-29T11:16:46;13.30;99.90
10826;DHT22;5466;55.898;14.094;2024-03-29T11:18:50;13.50;99.90
10826;DHT22;5466;55.898;14.094;2024-03-29T11:20:52;13.40;99.90
10826;DHT22;5466;55.898;14.094;2024-03-29T11:22:54;13.40;99.90
10826;DHT22;5466;55.898;14.094;2024-03-29T11:24:55;13.30;99.90
10826;DHT22;5466;55.898;14.094;2024-03-29T11:26:55;13.40;99.90
10826;DHT22;5466;55.898;14.094;2024-03-29T11:28:56;13.50;99.90
10826;DHT22;5466;55.898;14.094;2024-03-29T11:31:03;13.40;99.90
10826;DHT22;5466;55.898;14.094;2024-03-29T11:33:07;13.70;99.90
10826;DHT22;5466;55.898;14.094;2024-03-29T11:35:14;13.90;99.90
10826;DHT22;5466;55.898;14.094;2024-03-29T11:37:16;14.40;99.90
10826;DHT22;5466;55.898;14.094;2024-03-29T11:39:23;14.90;99.90
10826;DHT22;5466;55.898;14.094;2024-03-29T11:41:25;15.30;99.90
10826;DHT22;5466;55.898;14.094;2024-03-29T11:43:27;15.50;99.90
10826;DHT22;5466;55.898;14.094;2024-03-29T11:45:29;15.40;99.90
10826;DHT22;5466;55.898;14.094;2024-03-29T11:47:33;15.30;99.90
10826;DHT22;5466;55.898;14.094;2024-03-29T11:49:34;15.40;99.90
10826;DHT22;5466;55.898;14.094;2024-03-29T11:51:34;15.40;99.90
10826;DHT22;5466;55.898;14.094;2024-03-29T11:53:35;15.10;99.90
10826;DHT22;5466;55.898;14.094;2024-03-29T11:55:36;14.40;99.90
10826;DHT22;5466;55.898;14.094;2024-03-29T11:57:36;14.10;99.90
10826;DHT22;5466;55.898;14.094;2024-03-29T11:59:40;14.00;99.90
10826;DHT22;5466;55.898;14.094;2024-03-29T12:01:41;14.10;99.90
10826;DHT22;5466;55.898;14.094;2024-03-29T12:03:42;14.20;99.90
10826;DHT22;5466;55.898;14.094;2024-03-29T12:05:44;14.40;99.90
10826;DHT22;5466;55.898;14.094;2024-03-29T12:07:46;14.60;99.90
10826;DHT22;5466;55.898;14.094;2024-03-29T12:09:46;14.30;99.90
10826;DHT22;5466;55.898;14.094;2024-03-29T12:11:48;14.40;99.90
10826;DHT22;5466;55.898;14.094;2024-03-29T12:13:49;14.50;99.90
10826;DHT22;5466;55.898;14.094;2024-03-29T12:15:49;14.30;99.90
10826;DHT22;5466;55.898;14.094;2024-03-29T12:17:54;14.00;99.90
10826;DHT22;5466;55.898;14.094;2024-03-29T12:19:58;14.20;99.90
10826;DHT22;5466;55.898;14.094;2024-03-29T12:22:04;14.80;99.90
10826;DHT22;5466;55.898;14.094;2024-03-29T12:24:05;15.00;99.90
10826;DHT22;5466;55.898;14.094;2024-03-29T12:26:06;15.10;99.90
10826;DHT22;5466;55.898;14.094;2024-03-29T12:28:07;15.30;99.90
10826;DHT22;5466;55.898;14.094;2024-03-29T12:30:08;15.00;99.90
10826;DHT22;5466;55.898;14.094;2024-03-29T12:32:08;14.70;99.90
10826;DHT22;5466;55.898;14.094;2024-03-29T12:34:09;14.70;99.90
10826;DHT22;5466;55.898;14.094;2024-03-29T12:36:11;15.10;99.90
10826;DHT22;5466;55.898;14.094;2024-03-29T12:38:12;15.30;99.90
10826;DHT22;5466;55.898;14.094;2024-03-29T12:40:16;15.30;99.90
10826;DHT22;5466;55.898;14.094;2024-03-29T12:42:22;15.60;99.90
10826;DHT22;5466;55.898;14.094;2024-03-29T12:44:23;15.20;99.90
10826;DHT22;5466;55.898;14.094;2024-03-29T12:46:23;14.80;99.90
10826;DHT22;5466;55.898;14.094;2024-03-29T12:48:25;14.30;99.90
10826;DHT22;5466;55.898;14.094;2024-03-29T12:50:32;14.20;99.90
10826;DHT22;5466;55.898;14.094;2024-03-29T12:52:42;14.00;99.90
10826;DHT22;5466;55.898;14.094;2024-03-29T12:54:42;13.80;99.90
10826;DHT22;5466;55.898;14.094;2024-03-29T12:56:43;13.60;99.90